createdAt,value
2023-03-01T13:00:23.560Z,6.95
2023-03-01T13:02:56.616Z,6.71
2023-03-01T13:05:39.386Z,6.90
2023-03-01T13:08:05.795Z,6.83
2023-03-01T13:10:39.699Z,6.76
2023-03-01T13:13:27.253Z,6.59
2023-03-01T13:15:54.749Z,6.57
2023-03-01T13:18:22.983Z,6.36
2023-03-01T13:20:51.606Z,6.21
2023-03-01T13:23:23.919Z,6.19
2023-03-01T13:26:15.373Z,6.11
2023-03-01T13:28:44.995Z,5.97
2023-03-01T13:31:31.479Z,5.86
2023-03-01T13:33:59.647Z,5.72
2023-03-01T13:36:29.216Z,5.69
2023-03-01T13:38:59.751Z,5.60
2023-03-01T13:41:44.648Z,5.66
2023-03-01T13:44:14.297Z,5.62
2023-03-01T13:46:41.064Z,5.65
2023-03-01T13:49:14.344Z,5.63
2023-03-01T13:51:40.801Z,5.67
2023-03-01T13:54:12.573Z,5.71
2023-03-01T13:56:39.450Z,5.71
2023-03-01T13:59:14.303Z,5.66
2023-03-01T14:01:43.647Z,5.53
2023-03-01T14:04:29.095Z,5.53
2023-03-01T14:07:18.170Z,5.49
2023-03-01T14:09:46.402Z,5.47
2023-03-01T14:12:22.318Z,5.52
2023-03-01T14:14:55.583Z,5.43
2023-03-01T14:17:31.662Z,5.46
2023-03-01T14:20:05.417Z,5.45
2023-03-01T14:22:34.858Z,5.39
2023-03-01T14:25:06.373Z,5.35
2023-03-01T14:27:42.813Z,5.27
2023-03-01T14:30:16.341Z,5.23
2023-03-01T14:32:42.825Z,5.22
2023-03-01T14:35:32.473Z,5.26
2023-03-01T14:37:59.401Z,5.20
2023-03-01T14:40:31.887Z,5.19
2023-03-01T14:43:00.708Z,5.16
2023-03-01T14:45:30.043Z,5.13
2023-03-01T14:48:00.614Z,5.12
2023-03-01T14:50:30.085Z,5.06
2023-03-01T14:53:03.025Z,5.02
2023-03-01T14:55:36.476Z,4.85
2023-03-01T14:58:10.045Z,4.95
2023-03-01T15:00:36.977Z,4.94
2023-03-01T15:03:14.317Z,4.92
2023-03-01T15:05:42.994Z,4.90
2023-03-01T15:08:19.280Z,4.88
2023-03-01T15:10:58.862Z,4.87
2023-03-01T15:13:29.865Z,4.79
2023-03-01T15:16:08.309Z,4.81
2023-03-01T15:18:35.560Z,4.67
2023-03-01T15:21:25.861Z,4.69
2023-03-01T15:23:58.207Z,4.73
2023-03-01T15:26:40.511Z,4.67
2023-03-01T15:29:19.011Z,4.67
2023-03-01T15:32:04.730Z,4.68
2023-03-01T15:34:33.444Z,4.71
2023-03-01T15:37:02.256Z,4.68
2023-03-01T15:39:40.361Z,4.61
2023-03-01T15:42:12.323Z,4.64
2023-03-01T15:44:44.361Z,4.59
2023-03-01T15:47:30.731Z,4.58
2023-03-01T15:49:59.095Z,4.55
2023-03-01T15:52:41.929Z,4.50
2023-03-01T15:55:20.280Z,4.36
2023-03-01T15:57:47.039Z,4.43
2023-03-01T16:00:14.538Z,4.37
2023-03-01T16:02:42.274Z,4.33
2023-03-01T16:05:30.490Z,4.28
2023-03-01T16:07:57.609Z,4.18
2023-03-01T16:10:25.070Z,4.20
2023-03-01T16:12:53.442Z,4.17
2023-03-01T16:15:29.416Z,4.05
2023-03-01T16:17:58.990Z,4.05
2023-03-01T16:20:29.163Z,4.08
2023-03-01T16:23:07.393Z,3.92
2023-03-01T16:25:34.524Z,4.00
2023-03-01T16:28:05.703Z,3.96
2023-03-01T16:30:32.609Z,3.86
2023-03-01T16:32:59.439Z,3.80
2023-03-01T16:35:26.254Z,3.80
2023-03-01T16:37:54.831Z,3.66
2023-03-01T16:40:27.920Z,3.70
2023-03-01T16:43:01.071Z,3.66
2023-03-01T16:45:29.871Z,3.58
2023-03-01T16:47:56.454Z,3.51
2023-03-01T16:50:23.570Z,3.49
2023-03-01T16:52:50.212Z,3.44
2023-03-01T16:55:16.795Z,3.28
2023-03-01T16:57:43.444Z,3.27
2023-03-01T17:00:12.124Z,3.27
2023-03-01T17:02:38.831Z,3.20
2023-03-01T17:05:06.684Z,3.14
2023-03-01T17:07:36.904Z,3.08
2023-03-01T17:10:05.709Z,3.02
2023-03-01T17:12:33.034Z,2.98
2023-03-01T17:14:59.554Z,2.83
2023-03-01T17:17:26.504Z,2.85
2023-03-01T17:19:53.872Z,2.76
2023-03-01T17:22:20.435Z,2.69
2023-03-01T17:24:47.029Z,2.60
2023-03-01T17:27:14.045Z,2.54
2023-03-01T17:29:40.912Z,2.45
2023-03-01T17:32:07.850Z,2.37
2023-03-01T17:34:34.802Z,2.20
2023-03-01T17:37:01.384Z,2.11
2023-03-01T17:39:32.287Z,2.12
2023-03-01T17:41:59.173Z,1.94
2023-03-01T17:44:25.922Z,2.02
2023-03-01T17:46:52.462Z,1.95
2023-03-01T17:49:18.971Z,1.82
2023-03-01T17:51:45.612Z,1.80
2023-03-01T17:54:12.287Z,1.71
2023-03-01T17:56:38.907Z,1.56
2023-03-01T17:59:06.229Z,1.41
2023-03-01T18:01:33.781Z,1.52
2023-03-01T18:04:00.709Z,1.37
2023-03-01T18:06:28.702Z,1.33
2023-03-01T18:08:56.457Z,1.34
2023-03-01T18:11:24.354Z,1.22
2023-03-01T18:13:51.383Z,1.16
2023-03-01T18:16:19.557Z,1.00
2023-03-01T18:18:46.543Z,1.05
2023-03-01T18:21:13.952Z,0.91
2023-03-01T18:23:40.633Z,0.97
2023-03-01T18:26:09.623Z,0.95
2023-03-01T18:28:37.382Z,0.89
2023-03-01T18:31:08.468Z,0.79
2023-03-01T18:33:35.277Z,0.78
2023-03-01T18:36:02.290Z,0.68
2023-03-01T18:38:29.626Z,0.62
2023-03-01T18:40:56.505Z,0.50
2023-03-01T18:43:23.715Z,0.63
2023-03-01T18:45:56.693Z,0.45
2023-03-01T18:48:24.187Z,0.50
2023-03-01T18:50:50.870Z,0.55
2023-03-01T18:53:17.537Z,0.44
2023-03-01T18:55:46.989Z,0.39
2023-03-01T18:58:13.493Z,0.39
2023-03-01T19:00:40.030Z,0.38
2023-03-01T19:03:06.804Z,0.21
2023-03-01T19:05:33.356Z,0.23
2023-03-01T19:07:59.932Z,0.34
2023-03-01T19:10:26.428Z,0.28
2023-03-01T19:12:52.901Z,0.29
2023-03-01T19:15:23.178Z,0.10
2023-03-01T19:17:49.762Z,0.22
2023-03-01T19:20:16.540Z,0.19
2023-03-01T19:22:43.091Z,0.10
2023-03-01T19:25:10.026Z,0.14
2023-03-01T19:27:36.764Z,0.10
2023-03-01T19:30:03.715Z,0.03
2023-03-01T19:32:30.248Z,0.06
2023-03-01T19:34:57.206Z,0.02
2023-03-01T19:37:24.028Z,-0.02
2023-03-01T19:39:50.784Z,-0.09
2023-03-01T19:42:17.755Z,-0.09
2023-03-01T19:44:44.478Z,-0.23
2023-03-01T19:47:12.248Z,-0.13
2023-03-01T19:49:38.904Z,-0.16
2023-03-01T19:52:05.461Z,-0.18
2023-03-01T19:54:33.209Z,-0.31
2023-03-01T19:57:00.751Z,-0.23
2023-03-01T19:59:28.450Z,-0.22
2023-03-01T20:01:55.955Z,-0.22
2023-03-01T20:04:22.706Z,-0.46
2023-03-01T20:06:49.656Z,-0.31
2023-03-01T20:09:21.921Z,-0.43
2023-03-01T20:11:49.288Z,-0.47
2023-03-01T20:14:16.067Z,-0.33
2023-03-01T20:16:42.622Z,-0.44
2023-03-01T20:19:09.415Z,-0.47
2023-03-01T20:21:36.122Z,-0.49
2023-03-01T20:24:02.681Z,-0.46
2023-03-01T20:26:30.683Z,-0.50
2023-03-01T20:28:57.356Z,-0.51
2023-03-01T20:31:29.207Z,-0.51
2023-03-01T20:33:58.592Z,-0.56
2023-03-01T20:36:25.501Z,-0.62
2023-03-01T20:38:53.393Z,-0.89
2023-03-01T20:41:20.312Z,-0.71
2023-03-01T20:43:54.770Z,-0.80
2023-03-01T20:46:23.224Z,-0.73
2023-03-01T20:48:53.546Z,-0.66
2023-03-01T20:51:20.194Z,-0.71
2023-03-01T20:53:46.897Z,-0.86
2023-03-01T20:56:15.158Z,-0.88
2023-03-01T20:58:42.174Z,-0.96
2023-03-01T21:01:13.619Z,-1.14
2023-03-01T21:03:41.366Z,-1.21
2023-03-01T21:06:07.955Z,-1.14
2023-03-01T21:08:35.168Z,-1.13
2023-03-01T21:11:02.410Z,-1.22
2023-03-01T21:13:29.393Z,-1.27
2023-03-01T21:15:58.251Z,-1.28
2023-03-01T21:18:29.738Z,-1.39
2023-03-01T21:21:00.590Z,-1.37
2023-03-01T21:23:29.190Z,-1.40
2023-03-01T21:26:04.548Z,-1.41
2023-03-01T21:28:33.260Z,-1.43
2023-03-01T21:31:23.925Z,-1.51
2023-03-01T21:33:52.810Z,-1.56
2023-03-01T21:36:20.350Z,-1.58
2023-03-01T21:38:48.620Z,-1.63
2023-03-01T21:41:21.407Z,-1.69
2023-03-01T21:43:49.320Z,-1.75
2023-03-01T21:46:18.354Z,-1.73
2023-03-01T21:48:46.006Z,-1.77
2023-03-01T21:51:15.043Z,-1.88
2023-03-01T21:53:41.664Z,-1.87
2023-03-01T21:56:09.769Z,-1.91
2023-03-01T21:58:36.409Z,-1.87
2023-03-01T22:01:11.454Z,-1.95
2023-03-01T22:03:45.227Z,-1.97
2023-03-01T22:06:19.142Z,-1.97
2023-03-01T22:08:50.211Z,-2.01
2023-03-01T22:11:20.070Z,-2.00
2023-03-01T22:13:49.461Z,-2.15
2023-03-01T22:16:16.812Z,-2.10
2023-03-01T22:18:43.370Z,-2.19
2023-03-01T22:21:11.088Z,-2.11
2023-03-01T22:23:39.067Z,-2.35
2023-03-01T22:26:06.345Z,-2.23
2023-03-01T22:28:33.089Z,-2.29
2023-03-01T22:31:03.906Z,-2.30
2023-03-01T22:33:30.515Z,-2.51
2023-03-01T22:35:57.006Z,-2.37
2023-03-01T22:38:23.600Z,-2.49
2023-03-01T22:41:00.726Z,-2.41
2023-03-01T22:43:28.171Z,-2.46
2023-03-01T22:45:55.237Z,-2.50
2023-03-01T22:48:21.958Z,-2.55
2023-03-01T22:50:49.009Z,-2.51
2023-03-01T22:53:15.680Z,-2.58
2023-03-01T22:55:42.822Z,-2.61
2023-03-01T22:58:09.544Z,-2.63
2023-03-01T23:00:36.340Z,-2.67
2023-03-01T23:03:03.221Z,-2.70
2023-03-01T23:05:29.853Z,-2.75
2023-03-01T23:07:56.408Z,-2.77
2023-03-01T23:10:23.057Z,-2.87
2023-03-01T23:12:49.627Z,-2.83
2023-03-01T23:15:16.298Z,-3.03
2023-03-01T23:17:42.895Z,-2.97
2023-03-01T23:20:10.408Z,-2.90
2023-03-01T23:22:38.152Z,-2.93
2023-03-01T23:25:05.479Z,-2.94
2023-03-01T23:27:32.040Z,-2.93
2023-03-01T23:29:59.313Z,-2.87
2023-03-01T23:32:25.850Z,-2.90
2023-03-01T23:34:52.517Z,-3.00
2023-03-01T23:37:19.057Z,-2.93
2023-03-01T23:39:45.760Z,-2.98
2023-03-01T23:42:12.262Z,-3.01
2023-03-01T23:44:40.837Z,-2.98
2023-03-01T23:47:07.341Z,-3.09
2023-03-01T23:49:33.929Z,-3.01
2023-03-01T23:52:01.473Z,-3.25
2023-03-01T23:54:28.026Z,-3.20
2023-03-01T23:56:54.632Z,-3.06
2023-03-01T23:59:23.338Z,-3.07
